Aviation Digital Data Service (ADDS)

Output produced by METARs form (0321 UTC 04 August 2015)
found at http://aviationweather.gov/adds/metars/
 
KPWM 040240Z 0403/0424 VRB04KT P6SM SCT070 BKN200 
     TEMPO 0403/0405 5SM TSRA BKN070CB OVC100 
     FM040500 20005KT 6SM BR VCSH BKN070 BKN100 
     FM041200 23007KT P6SM SCT080 
     FM041800 21010KT P6SM VCTS SCT060CB BKN100